Casper, WY (82601)

1:32 PM MDT on July 24, 2016 (GMT -0600)
ARS - W7BLM, Casper Wy. | | Change Station

Elev 5186 ft 42.83 °N, 106.35 °W | Updated 4 seconds ago

Clear
Clear
79.3 °F
Feels Like 79 °F
N
0.2
Wind Variable Wind from ENE
Gusts 2.5 mph

Today
High -- | Low -- °F
--% Chance of Precip.
Yesterday
High -- | Low -- °F
Precip. -- in
Pressure 30.00 in
Visibility 10.0 miles
Clouds Clear
Heat Index 79 °F
Dew Point 44 °F
Humidity 28%
Rainfall 0.00 in
Snow Depth Not available.
5:49 AM 8:33 PM
Waning Gibbous, 74% visible
METAR KCPR 241853Z VRB06KT 10SM CLR 26/06 A3020 RMK AO2 SLP157 T02610061
Pressure 30.00 in
Visibility 10.0 miles
Clouds Clear
Heat Index 79 °F
Dew Point 44 °F
Humidity 28%
Rainfall 0.00 in
Snow Depth Not available.
5:49 AM 8:33 PM
Waning Gibbous, 74% visible
METAR KCPR 241853Z VRB06KT 10SM CLR 26/06 A3020 RMK AO2 SLP157 T02610061

10-Day Weather Forecast

Almanac

Astronomy

Jul. 24, 2016 Rise Set
Actual Time
Civil Twilight
Nautical Twilight
Astronomical Twilight
Moon
Length of Visible Light
Length of Day
Tomorrow will be .
, % of the Moon is Illuminated

Today's Extremes

State Highs State Lows

Community

WunderPhotos

Upload Photos

1,927,172 photos uploaded!

WunderBlog® & News

Nearby

Air Quality

  Air Quality AQ Index Pollutant
Not available.

Snow Depth

Station Depth Elevation

Earthquake Activity

City Distance Mag. Time & Date
Minimum magnitude displayed is 2.5.

Coastal Water Temperatures

Place Temperature

Stations

Nearby Weather Stations

Station Location Temp. Windchill Dew Point Humidity Wind Precip. Elev Updated Type
                   

Watches & Warnings

There are currently no watches in effect.